Saint Petersburg, Florida
Current Conditions -  °F | °C
As of 6:53 AM on Friday 19 Dec 2014 (Local Time) from KSPG Reporting Station
Clear Clear  
Wind Chill: 56°   Ceiling: Unl
Heat Index: 56°   Visibility: 10mi
Dew Point: 50°   Wind: 6mph
Humidity: 80%   Direction: 40°NE
Pressure: 30.1"   Gusts: NA
Location:  27.77°N, 82.63°W
Report Text: KSPG 191153Z 04005KT 10SM CLR 13/10 A3010 RMK AO2 SLP193 T01330100 10144 20133 53003
Loading
Personal Weather Stations






























Interactive Weather Map New forecast layout! Learn more

10-Day Weather Forecast

Advertisements
Track Severe Weather on mobile